sensor_id;sensor_type;location;lat;lon;timestamp;P1;durP1;ratioP1;P2;durP2;ratioP2
15271;SDS011;7737;51.578;7.268;2022-12-18T00:00:00;53.83;;;31.47;;
15271;SDS011;7737;51.578;7.268;2022-12-18T00:02:26;55.17;;;32.40;;
15271;SDS011;7737;51.578;7.268;2022-12-18T00:04:53;56.40;;;32.13;;
15271;SDS011;7737;51.578;7.268;2022-12-18T00:07:19;53.30;;;29.77;;
15271;SDS011;7737;51.578;7.268;2022-12-18T00:09:46;51.00;;;30.07;;
15271;SDS011;7737;51.578;7.268;2022-12-18T00:12:12;54.97;;;30.53;;
15271;SDS011;7737;51.578;7.268;2022-12-18T00:14:40;56.80;;;29.50;;
15271;SDS011;7737;51.578;7.268;2022-12-18T00:17:06;48.27;;;28.00;;
15271;SDS011;7737;51.578;7.268;2022-12-18T00:19:33;52.33;;;30.13;;
15271;SDS011;7737;51.578;7.268;2022-12-18T00:21:59;54.47;;;31.13;;
15271;SDS011;7737;51.578;7.268;2022-12-18T00:24:26;54.57;;;30.57;;
15271;SDS011;7737;51.578;7.268;2022-12-18T00:26:52;57.37;;;30.00;;
15271;SDS011;7737;51.578;7.268;2022-12-18T00:29:19;54.03;;;30.43;;
15271;SDS011;7737;51.578;7.268;2022-12-18T00:31:47;56.17;;;31.17;;
15271;SDS011;7737;51.578;7.268;2022-12-18T00:34:13;54.30;;;31.50;;
15271;SDS011;7737;51.578;7.268;2022-12-18T00:36:40;57.37;;;32.60;;
15271;SDS011;7737;51.578;7.268;2022-12-18T00:39:07;53.90;;;32.53;;
15271;SDS011;7737;51.578;7.268;2022-12-18T00:41:34;60.40;;;34.43;;
15271;SDS011;7737;51.578;7.268;2022-12-18T00:44:18;62.67;;;35.47;;
15271;SDS011;7737;51.578;7.268;2022-12-18T00:46:47;63.73;;;35.20;;
15271;SDS011;7737;51.578;7.268;2022-12-18T00:49:14;59.37;;;34.37;;
15271;SDS011;7737;51.578;7.268;2022-12-18T00:51:41;63.33;;;35.43;;
15271;SDS011;7737;51.578;7.268;2022-12-18T00:54:08;60.70;;;34.10;;
15271;SDS011;7737;51.578;7.268;2022-12-18T00:56:35;58.37;;;32.10;;
15271;SDS011;7737;51.578;7.268;2022-12-18T00:59:03;60.20;;;32.77;;
15271;SDS011;7737;51.578;7.268;2022-12-18T01:01:29;57.67;;;31.83;;
15271;SDS011;7737;51.578;7.268;2022-12-18T01:03:57;53.33;;;31.50;;
15271;SDS011;7737;51.578;7.268;2022-12-18T01:06:24;58.53;;;31.33;;
15271;SDS011;7737;51.578;7.268;2022-12-18T01:08:50;54.17;;;30.30;;
15271;SDS011;7737;51.578;7.268;2022-12-18T01:11:17;54.37;;;32.67;;
15271;SDS011;7737;51.578;7.268;2022-12-18T01:13:45;55.67;;;31.80;;
15271;SDS011;7737;51.578;7.268;2022-12-18T01:16:12;53.13;;;31.90;;
15271;SDS011;7737;51.578;7.268;2022-12-18T01:18:40;52.97;;;30.83;;
15271;SDS011;7737;51.578;7.268;2022-12-18T01:21:08;55.20;;;32.87;;
15271;SDS011;7737;51.578;7.268;2022-12-18T01:23:36;55.80;;;32.37;;
15271;SDS011;7737;51.578;7.268;2022-12-18T01:26:04;54.70;;;31.43;;
15271;SDS011;7737;51.578;7.268;2022-12-18T01:28:31;60.33;;;34.37;;
15271;SDS011;7737;51.578;7.268;2022-12-18T01:31:08;54.47;;;30.27;;
15271;SDS011;7737;51.578;7.268;2022-12-18T01:33:39;57.37;;;30.33;;
15271;SDS011;7737;51.578;7.268;2022-12-18T01:36:05;53.97;;;31.73;;
15271;SDS011;7737;51.578;7.268;2022-12-18T01:38:33;57.03;;;31.90;;
15271;SDS011;7737;51.578;7.268;2022-12-18T01:41:00;54.87;;;32.93;;
15271;SDS011;7737;51.578;7.268;2022-12-18T01:43:43;59.63;;;32.70;;
15271;SDS011;7737;51.578;7.268;2022-12-18T01:46:11;57.43;;;30.67;;
15271;SDS011;7737;51.578;7.268;2022-12-18T01:48:38;58.33;;;31.47;;
15271;SDS011;7737;51.578;7.268;2022-12-18T01:51:05;55.53;;;31.33;;
15271;SDS011;7737;51.578;7.268;2022-12-18T01:53:35;52.70;;;29.23;;
15271;SDS011;7737;51.578;7.268;2022-12-18T01:56:03;56.83;;;30.13;;
15271;SDS011;7737;51.578;7.268;2022-12-18T01:58:30;52.27;;;29.40;;
15271;SDS011;7737;51.578;7.268;2022-12-18T02:01:02;52.17;;;30.43;;
15271;SDS011;7737;51.578;7.268;2022-12-18T02:03:29;51.10;;;29.53;;
15271;SDS011;7737;51.578;7.268;2022-12-18T02:05:57;54.97;;;29.83;;
15271;SDS011;7737;51.578;7.268;2022-12-18T02:08:31;51.00;;;28.63;;
15271;SDS011;7737;51.578;7.268;2022-12-18T02:11:07;54.20;;;28.07;;
15271;SDS011;7737;51.578;7.268;2022-12-18T02:13:42;48.77;;;26.30;;
15271;SDS011;7737;51.578;7.268;2022-12-18T02:16:19;50.47;;;28.13;;
15271;SDS011;7737;51.578;7.268;2022-12-18T02:18:51;48.97;;;27.23;;
15271;SDS011;7737;51.578;7.268;2022-12-18T02:21:25;51.27;;;27.37;;
15271;SDS011;7737;51.578;7.268;2022-12-18T02:24:04;49.63;;;25.73;;
15271;SDS011;7737;51.578;7.268;2022-12-18T02:26:45;47.97;;;27.63;;
15271;SDS011;7737;51.578;7.268;2022-12-18T02:29:14;49.70;;;27.40;;
15271;SDS011;7737;51.578;7.268;2022-12-18T02:31:45;48.43;;;28.27;;
15271;SDS011;7737;51.578;7.268;2022-12-18T02:34:17;58.87;;;29.47;;
15271;SDS011;7737;51.578;7.268;2022-12-18T02:36:46;48.27;;;28.63;;
15271;SDS011;7737;51.578;7.268;2022-12-18T02:39:15;50.00;;;28.67;;
15271;SDS011;7737;51.578;7.268;2022-12-18T02:41:44;51.60;;;29.30;;
15271;SDS011;7737;51.578;7.268;2022-12-18T02:44:12;50.97;;;29.60;;
15271;SDS011;7737;51.578;7.268;2022-12-18T02:46:41;49.30;;;28.53;;
15271;SDS011;7737;51.578;7.268;2022-12-18T02:49:12;44.07;;;24.63;;
15271;SDS011;7737;51.578;7.268;2022-12-18T02:51:52;48.13;;;27.70;;
15271;SDS011;7737;51.578;7.268;2022-12-18T02:54:25;51.97;;;27.57;;
15271;SDS011;7737;51.578;7.268;2022-12-18T02:57:12;45.50;;;26.10;;
15271;SDS011;7737;51.578;7.268;2022-12-18T02:59:45;47.77;;;26.17;;
15271;SDS011;7737;51.578;7.268;2022-12-18T03:02:21;47.07;;;25.80;;
15271;SDS011;7737;51.578;7.268;2022-12-18T03:04:54;43.03;;;25.70;;
15271;SDS011;7737;51.578;7.268;2022-12-18T03:07:28;47.27;;;26.80;;
15271;SDS011;7737;51.578;7.268;2022-12-18T03:10:03;47.30;;;26.17;;
15271;SDS011;7737;51.578;7.268;2022-12-18T03:12:35;50.17;;;25.90;;
15271;SDS011;7737;51.578;7.268;2022-12-18T03:15:07;44.70;;;25.30;;
15271;SDS011;7737;51.578;7.268;2022-12-18T03:17:37;45.67;;;26.10;;
15271;SDS011;7737;51.578;7.268;2022-12-18T03:20:07;44.30;;;25.47;;
15271;SDS011;7737;51.578;7.268;2022-12-18T03:22:38;46.33;;;25.67;;
15271;SDS011;7737;51.578;7.268;2022-12-18T03:25:08;45.33;;;25.40;;
15271;SDS011;7737;51.578;7.268;2022-12-18T03:27:42;44.77;;;26.10;;
15271;SDS011;7737;51.578;7.268;2022-12-18T03:30:13;48.60;;;27.40;;
15271;SDS011;7737;51.578;7.268;2022-12-18T03:32:42;45.60;;;27.43;;
15271;SDS011;7737;51.578;7.268;2022-12-18T03:35:13;49.77;;;28.17;;
15271;SDS011;7737;51.578;7.268;2022-12-18T03:37:47;47.30;;;27.47;;
15271;SDS011;7737;51.578;7.268;2022-12-18T03:40:14;46.40;;;27.17;;
15271;SDS011;7737;51.578;7.268;2022-12-18T03:42:44;46.03;;;27.20;;
15271;SDS011;7737;51.578;7.268;2022-12-18T03:45:18;45.67;;;27.30;;
15271;SDS011;7737;51.578;7.268;2022-12-18T03:47:51;46.83;;;27.23;;
15271;SDS011;7737;51.578;7.268;2022-12-18T03:50:25;47.70;;;26.83;;
15271;SDS011;7737;51.578;7.268;2022-12-18T03:53:02;48.37;;;26.50;;
15271;SDS011;7737;51.578;7.268;2022-12-18T03:55:35;46.67;;;27.23;;
15271;SDS011;7737;51.578;7.268;2022-12-18T03:58:03;43.13;;;25.43;;
15271;SDS011;7737;51.578;7.268;2022-12-18T04:00:32;45.77;;;26.40;;
15271;SDS011;7737;51.578;7.268;2022-12-18T04:03:00;46.27;;;26.00;;
15271;SDS011;7737;51.578;7.268;2022-12-18T04:05:29;46.13;;;25.93;;
15271;SDS011;7737;51.578;7.268;2022-12-18T04:07:59;45.90;;;26.97;;
15271;SDS011;7737;51.578;7.268;2022-12-18T04:10:26;47.00;;;26.60;;
15271;SDS011;7737;51.578;7.268;2022-12-18T04:12:55;47.97;;;26.17;;
15271;SDS011;7737;51.578;7.268;2022-12-18T04:15:23;49.00;;;27.67;;
15271;SDS011;7737;51.578;7.268;2022-12-18T04:17:50;47.23;;;26.33;;
15271;SDS011;7737;51.578;7.268;2022-12-18T04:20:16;45.30;;;26.37;;
15271;SDS011;7737;51.578;7.268;2022-12-18T04:22:43;48.10;;;28.40;;
15271;SDS011;7737;51.578;7.268;2022-12-18T04:25:10;51.20;;;28.17;;
15271;SDS011;7737;51.578;7.268;2022-12-18T04:27:36;50.03;;;28.37;;
15271;SDS011;7737;51.578;7.268;2022-12-18T04:30:03;45.10;;;26.70;;
15271;SDS011;7737;51.578;7.268;2022-12-18T04:32:31;45.50;;;26.13;;
15271;SDS011;7737;51.578;7.268;2022-12-18T04:34:59;44.13;;;26.53;;
15271;SDS011;7737;51.578;7.268;2022-12-18T04:37:25;46.70;;;26.13;;
15271;SDS011;7737;51.578;7.268;2022-12-18T04:39:52;47.97;;;26.40;;
15271;SDS011;7737;51.578;7.268;2022-12-18T04:42:18;45.27;;;25.47;;
15271;SDS011;7737;51.578;7.268;2022-12-18T04:44:45;46.63;;;26.47;;
15271;SDS011;7737;51.578;7.268;2022-12-18T04:47:11;42.57;;;26.63;;
15271;SDS011;7737;51.578;7.268;2022-12-18T04:49:39;47.17;;;25.57;;
15271;SDS011;7737;51.578;7.268;2022-12-18T04:52:05;44.67;;;25.40;;
15271;SDS011;7737;51.578;7.268;2022-12-18T04:54:32;46.00;;;25.27;;
15271;SDS011;7737;51.578;7.268;2022-12-18T04:56:59;47.37;;;25.57;;
15271;SDS011;7737;51.578;7.268;2022-12-18T04:59:25;46.07;;;26.43;;
15271;SDS011;7737;51.578;7.268;2022-12-18T05:01:52;44.33;;;26.13;;
15271;SDS011;7737;51.578;7.268;2022-12-18T05:04:18;46.23;;;25.73;;
15271;SDS011;7737;51.578;7.268;2022-12-18T05:06:46;44.10;;;26.00;;
15271;SDS011;7737;51.578;7.268;2022-12-18T05:09:13;46.97;;;27.00;;
15271;SDS011;7737;51.578;7.268;2022-12-18T05:11:39;46.93;;;25.57;;
15271;SDS011;7737;51.578;7.268;2022-12-18T05:14:06;47.13;;;25.90;;
15271;SDS011;7737;51.578;7.268;2022-12-18T05:16:32;44.83;;;24.87;;
15271;SDS011;7737;51.578;7.268;2022-12-18T05:18:58;47.27;;;26.33;;
15271;SDS011;7737;51.578;7.268;2022-12-18T05:21:25;47.73;;;25.87;;
15271;SDS011;7737;51.578;7.268;2022-12-18T05:23:53;46.53;;;26.47;;
15271;SDS011;7737;51.578;7.268;2022-12-18T05:26:19;43.00;;;25.73;;
15271;SDS011;7737;51.578;7.268;2022-12-18T05:28:46;46.13;;;26.00;;
15271;SDS011;7737;51.578;7.268;2022-12-18T05:31:13;41.27;;;25.10;;
15271;SDS011;7737;51.578;7.268;2022-12-18T05:33:39;44.07;;;25.83;;
15271;SDS011;7737;51.578;7.268;2022-12-18T05:36:07;41.40;;;23.83;;
15271;SDS011;7737;51.578;7.268;2022-12-18T05:38:35;41.77;;;24.00;;
15271;SDS011;7737;51.578;7.268;2022-12-18T05:41:04;43.20;;;25.20;;
15271;SDS011;7737;51.578;7.268;2022-12-18T05:43:33;42.87;;;24.60;;
15271;SDS011;7737;51.578;7.268;2022-12-18T05:46:03;43.43;;;24.70;;
15271;SDS011;7737;51.578;7.268;2022-12-18T05:48:30;42.97;;;25.07;;
15271;SDS011;7737;51.578;7.268;2022-12-18T05:51:02;45.97;;;25.67;;
15271;SDS011;7737;51.578;7.268;2022-12-18T05:53:31;40.40;;;24.03;;
15271;SDS011;7737;51.578;7.268;2022-12-18T05:55:59;41.57;;;24.40;;
15271;SDS011;7737;51.578;7.268;2022-12-18T05:58:27;43.77;;;24.30;;
15271;SDS011;7737;51.578;7.268;2022-12-18T06:00:54;41.80;;;23.67;;
15271;SDS011;7737;51.578;7.268;2022-12-18T06:03:20;41.57;;;23.70;;
15271;SDS011;7737;51.578;7.268;2022-12-18T06:05:47;38.90;;;23.00;;
15271;SDS011;7737;51.578;7.268;2022-12-18T06:08:13;39.17;;;22.97;;
15271;SDS011;7737;51.578;7.268;2022-12-18T06:10:40;39.70;;;23.80;;
15271;SDS011;7737;51.578;7.268;2022-12-18T06:13:07;36.73;;;23.10;;
15271;SDS011;7737;51.578;7.268;2022-12-18T06:15:37;41.40;;;23.50;;
15271;SDS011;7737;51.578;7.268;2022-12-18T06:18:03;40.07;;;23.53;;
15271;SDS011;7737;51.578;7.268;2022-12-18T06:20:30;38.40;;;23.23;;
15271;SDS011;7737;51.578;7.268;2022-12-18T06:22:56;38.43;;;22.73;;
15271;SDS011;7737;51.578;7.268;2022-12-18T06:25:23;38.63;;;24.10;;
15271;SDS011;7737;51.578;7.268;2022-12-18T06:27:49;39.70;;;23.00;;
15271;SDS011;7737;51.578;7.268;2022-12-18T06:30:16;46.17;;;24.03;;
15271;SDS011;7737;51.578;7.268;2022-12-18T06:32:44;39.97;;;23.60;;
15271;SDS011;7737;51.578;7.268;2022-12-18T06:35:10;39.37;;;23.50;;
15271;SDS011;7737;51.578;7.268;2022-12-18T06:37:37;40.23;;;23.53;;
15271;SDS011;7737;51.578;7.268;2022-12-18T06:40:03;36.77;;;22.17;;
15271;SDS011;7737;51.578;7.268;2022-12-18T06:42:31;37.93;;;22.43;;
15271;SDS011;7737;51.578;7.268;2022-12-18T06:44:58;38.03;;;22.43;;
15271;SDS011;7737;51.578;7.268;2022-12-18T06:47:24;38.43;;;23.00;;
15271;SDS011;7737;51.578;7.268;2022-12-18T06:49:52;34.63;;;21.73;;
15271;SDS011;7737;51.578;7.268;2022-12-18T06:52:18;37.63;;;22.57;;
15271;SDS011;7737;51.578;7.268;2022-12-18T06:54:45;35.83;;;22.83;;
15271;SDS011;7737;51.578;7.268;2022-12-18T06:57:11;37.77;;;22.40;;
15271;SDS011;7737;51.578;7.268;2022-12-18T06:59:38;38.60;;;22.30;;
15271;SDS011;7737;51.578;7.268;2022-12-18T07:02:04;35.93;;;22.83;;
15271;SDS011;7737;51.578;7.268;2022-12-18T07:04:31;37.43;;;22.83;;
15271;SDS011;7737;51.578;7.268;2022-12-18T07:06:59;41.80;;;23.73;;
15271;SDS011;7737;51.578;7.268;2022-12-18T07:09:26;40.73;;;23.10;;
15271;SDS011;7737;51.578;7.268;2022-12-18T07:11:52;35.20;;;21.80;;
15271;SDS011;7737;51.578;7.268;2022-12-18T07:14:19;39.73;;;22.43;;
15271;SDS011;7737;51.578;7.268;2022-12-18T07:16:46;39.97;;;23.27;;
15271;SDS011;7737;51.578;7.268;2022-12-18T07:19:12;39.33;;;22.87;;
15271;SDS011;7737;51.578;7.268;2022-12-18T07:21:39;39.50;;;22.83;;
15271;SDS011;7737;51.578;7.268;2022-12-18T07:24:07;39.07;;;22.57;;
15271;SDS011;7737;51.578;7.268;2022-12-18T07:26:33;38.87;;;23.00;;
15271;SDS011;7737;51.578;7.268;2022-12-18T07:29:00;37.70;;;22.33;;
15271;SDS011;7737;51.578;7.268;2022-12-18T07:31:26;35.90;;;21.63;;
15271;SDS011;7737;51.578;7.268;2022-12-18T07:33:53;37.03;;;22.97;;
15271;SDS011;7737;51.578;7.268;2022-12-18T07:36:21;34.83;;;21.03;;
15271;SDS011;7737;51.578;7.268;2022-12-18T07:38:47;39.37;;;21.30;;
15271;SDS011;7737;51.578;7.268;2022-12-18T07:41:16;40.10;;;22.27;;
15271;SDS011;7737;51.578;7.268;2022-12-18T07:43:43;36.53;;;20.90;;
15271;SDS011;7737;51.578;7.268;2022-12-18T07:46:10;37.70;;;21.40;;
15271;SDS011;7737;51.578;7.268;2022-12-18T07:48:38;34.83;;;21.13;;
15271;SDS011;7737;51.578;7.268;2022-12-18T07:51:05;33.43;;;21.90;;
15271;SDS011;7737;51.578;7.268;2022-12-18T07:53:32;36.83;;;21.70;;
15271;SDS011;7737;51.578;7.268;2022-12-18T07:56:00;37.57;;;21.30;;
15271;SDS011;7737;51.578;7.268;2022-12-18T07:58:29;39.77;;;22.10;;
15271;SDS011;7737;51.578;7.268;2022-12-18T08:01:01;36.67;;;22.13;;
15271;SDS011;7737;51.578;7.268;2022-12-18T08:03:28;35.70;;;21.50;;
15271;SDS011;7737;51.578;7.268;2022-12-18T08:05:57;35.13;;;21.07;;
15271;SDS011;7737;51.578;7.268;2022-12-18T08:08:25;33.27;;;20.60;;
15271;SDS011;7737;51.578;7.268;2022-12-18T08:10:52;35.57;;;21.37;;
15271;SDS011;7737;51.578;7.268;2022-12-18T08:13:18;37.67;;;21.73;;
15271;SDS011;7737;51.578;7.268;2022-12-18T08:15:46;37.00;;;21.80;;
15271;SDS011;7737;51.578;7.268;2022-12-18T08:18:12;35.43;;;21.37;;
15271;SDS011;7737;51.578;7.268;2022-12-18T08:20:39;36.83;;;21.63;;
15271;SDS011;7737;51.578;7.268;2022-12-18T08:23:08;36.77;;;22.67;;
15271;SDS011;7737;51.578;7.268;2022-12-18T08:25:35;36.53;;;21.20;;
15271;SDS011;7737;51.578;7.268;2022-12-18T08:28:01;34.73;;;23.17;;
15271;SDS011;7737;51.578;7.268;2022-12-18T08:30:28;36.30;;;22.20;;
15271;SDS011;7737;51.578;7.268;2022-12-18T08:32:56;36.10;;;22.17;;
15271;SDS011;7737;51.578;7.268;2022-12-18T08:35:23;37.20;;;23.57;;
15271;SDS011;7737;51.578;7.268;2022-12-18T08:37:49;34.43;;;22.53;;
15271;SDS011;7737;51.578;7.268;2022-12-18T08:40:16;40.47;;;23.33;;
15271;SDS011;7737;51.578;7.268;2022-12-18T08:42:42;37.77;;;23.33;;
15271;SDS011;7737;51.578;7.268;2022-12-18T08:45:26;34.67;;;22.60;;
15271;SDS011;7737;51.578;7.268;2022-12-18T08:47:53;37.37;;;22.90;;
15271;SDS011;7737;51.578;7.268;2022-12-18T08:50:21;37.00;;;22.40;;
15271;SDS011;7737;51.578;7.268;2022-12-18T08:52:48;33.17;;;21.57;;
15271;SDS011;7737;51.578;7.268;2022-12-18T08:55:14;34.60;;;20.90;;
15271;SDS011;7737;51.578;7.268;2022-12-18T08:57:41;30.20;;;19.57;;
15271;SDS011;7737;51.578;7.268;2022-12-18T09:00:08;33.07;;;21.07;;
15271;SDS011;7737;51.578;7.268;2022-12-18T09:02:35;33.40;;;20.40;;
15271;SDS011;7737;51.578;7.268;2022-12-18T09:05:03;30.90;;;20.57;;
15271;SDS011;7737;51.578;7.268;2022-12-18T09:07:30;30.63;;;19.27;;
15271;SDS011;7737;51.578;7.268;2022-12-18T09:09:57;30.07;;;19.00;;
15271;SDS011;7737;51.578;7.268;2022-12-18T09:12:23;29.30;;;19.93;;
15271;SDS011;7737;51.578;7.268;2022-12-18T09:14:50;30.73;;;19.93;;
15271;SDS011;7737;51.578;7.268;2022-12-18T09:17:16;31.87;;;20.57;;
15271;SDS011;7737;51.578;7.268;2022-12-18T09:19:43;33.60;;;19.67;;
15271;SDS011;7737;51.578;7.268;2022-12-18T09:22:11;29.07;;;19.33;;
15271;SDS011;7737;51.578;7.268;2022-12-18T09:24:37;31.57;;;19.33;;
15271;SDS011;7737;51.578;7.268;2022-12-18T09:27:04;31.37;;;19.90;;
15271;SDS011;7737;51.578;7.268;2022-12-18T09:29:31;30.23;;;19.23;;
15271;SDS011;7737;51.578;7.268;2022-12-18T09:31:58;34.50;;;19.80;;
15271;SDS011;7737;51.578;7.268;2022-12-18T09:34:25;28.73;;;19.13;;
15271;SDS011;7737;51.578;7.268;2022-12-18T09:36:51;28.67;;;19.60;;
15271;SDS011;7737;51.578;7.268;2022-12-18T09:39:19;31.70;;;20.03;;
15271;SDS011;7737;51.578;7.268;2022-12-18T09:41:46;31.73;;;20.00;;
15271;SDS011;7737;51.578;7.268;2022-12-18T09:44:20;29.60;;;19.57;;
15271;SDS011;7737;51.578;7.268;2022-12-18T09:46:53;28.83;;;18.83;;
15271;SDS011;7737;51.578;7.268;2022-12-18T09:49:31;28.97;;;19.50;;
15271;SDS011;7737;51.578;7.268;2022-12-18T09:52:02;26.77;;;19.03;;
15271;SDS011;7737;51.578;7.268;2022-12-18T09:54:33;30.23;;;19.27;;
15271;SDS011;7737;51.578;7.268;2022-12-18T09:57:02;26.30;;;17.97;;
15271;SDS011;7737;51.578;7.268;2022-12-18T09:59:30;27.33;;;18.47;;
15271;SDS011;7737;51.578;7.268;2022-12-18T10:02:00;29.37;;;18.70;;
15271;SDS011;7737;51.578;7.268;2022-12-18T10:04:34;26.80;;;18.10;;
15271;SDS011;7737;51.578;7.268;2022-12-18T10:07:01;24.47;;;17.47;;
15271;SDS011;7737;51.578;7.268;2022-12-18T10:09:39;26.13;;;18.37;;
15271;SDS011;7737;51.578;7.268;2022-12-18T10:12:13;25.97;;;17.37;;
15271;SDS011;7737;51.578;7.268;2022-12-18T10:14:48;26.97;;;17.70;;
15271;SDS011;7737;51.578;7.268;2022-12-18T10:17:22;24.03;;;16.73;;
15271;SDS011;7737;51.578;7.268;2022-12-18T10:19:55;26.13;;;17.10;;
15271;SDS011;7737;51.578;7.268;2022-12-18T10:22:28;24.27;;;16.33;;
15271;SDS011;7737;51.578;7.268;2022-12-18T10:25:15;25.20;;;17.23;;
15271;SDS011;7737;51.578;7.268;2022-12-18T10:27:47;24.00;;;16.63;;
15271;SDS011;7737;51.578;7.268;2022-12-18T10:30:14;23.07;;;16.40;;
15271;SDS011;7737;51.578;7.268;2022-12-18T10:32:42;24.10;;;16.77;;
15271;SDS011;7737;51.578;7.268;2022-12-18T10:35:11;25.03;;;17.63;;
15271;SDS011;7737;51.578;7.268;2022-12-18T10:37:59;25.70;;;17.27;;
15271;SDS011;7737;51.578;7.268;2022-12-18T10:40:28;23.93;;;16.73;;
15271;SDS011;7737;51.578;7.268;2022-12-18T10:43:03;23.47;;;16.07;;
15271;SDS011;7737;51.578;7.268;2022-12-18T10:45:31;23.00;;;16.03;;
15271;SDS011;7737;51.578;7.268;2022-12-18T10:47:57;23.40;;;15.53;;
15271;SDS011;7737;51.578;7.268;2022-12-18T10:50:26;21.83;;;15.23;;
15271;SDS011;7737;51.578;7.268;2022-12-18T10:52:57;19.43;;;14.20;;
15271;SDS011;7737;51.578;7.268;2022-12-18T10:55:25;18.77;;;13.63;;
15271;SDS011;7737;51.578;7.268;2022-12-18T10:58:01;19.87;;;14.57;;
15271;SDS011;7737;51.578;7.268;2022-12-18T11:00:42;20.03;;;14.70;;
15271;SDS011;7737;51.578;7.268;2022-12-18T11:03:28;22.60;;;15.33;;
15271;SDS011;7737;51.578;7.268;2022-12-18T11:06:04;20.07;;;14.03;;
15271;SDS011;7737;51.578;7.268;2022-12-18T11:08:32;21.50;;;13.80;;
15271;SDS011;7737;51.578;7.268;2022-12-18T11:11:01;26.13;;;15.87;;
15271;SDS011;7737;51.578;7.268;2022-12-18T11:13:28;19.63;;;14.23;;
15271;SDS011;7737;51.578;7.268;2022-12-18T11:15:56;19.97;;;14.23;;
15271;SDS011;7737;51.578;7.268;2022-12-18T11:18:25;20.17;;;14.80;;
15271;SDS011;7737;51.578;7.268;2022-12-18T11:20:54;17.40;;;13.40;;
15271;SDS011;7737;51.578;7.268;2022-12-18T11:23:23;20.20;;;14.70;;
15271;SDS011;7737;51.578;7.268;2022-12-18T11:25:54;19.17;;;14.03;;
15271;SDS011;7737;51.578;7.268;2022-12-18T11:28:29;19.77;;;14.60;;
15271;SDS011;7737;51.578;7.268;2022-12-18T11:31:18;20.70;;;15.03;;
15271;SDS011;7737;51.578;7.268;2022-12-18T11:33:52;21.70;;;14.93;;
15271;SDS011;7737;51.578;7.268;2022-12-18T11:36:28;20.00;;;15.10;;
15271;SDS011;7737;51.578;7.268;2022-12-18T11:38:59;22.90;;;16.50;;
15271;SDS011;7737;51.578;7.268;2022-12-18T11:41:32;21.67;;;16.17;;
15271;SDS011;7737;51.578;7.268;2022-12-18T11:44:24;21.63;;;15.93;;
15271;SDS011;7737;51.578;7.268;2022-12-18T11:46:55;23.77;;;15.87;;
15271;SDS011;7737;51.578;7.268;2022-12-18T11:49:28;20.40;;;15.43;;
15271;SDS011;7737;51.578;7.268;2022-12-18T11:52:00;23.80;;;15.77;;
15271;SDS011;7737;51.578;7.268;2022-12-18T11:54:35;22.63;;;16.63;;
15271;SDS011;7737;51.578;7.268;2022-12-18T11:57:03;21.97;;;15.73;;
15271;SDS011;7737;51.578;7.268;2022-12-18T11:59:42;18.77;;;13.83;;
15271;SDS011;7737;51.578;7.268;2022-12-18T12:02:24;21.10;;;15.07;;
15271;SDS011;7737;51.578;7.268;2022-12-18T12:05:12;17.93;;;13.80;;
15271;SDS011;7737;51.578;7.268;2022-12-18T12:07:55;18.87;;;14.07;;
15271;SDS011;7737;51.578;7.268;2022-12-18T12:10:31;19.43;;;14.53;;
15271;SDS011;7737;51.578;7.268;2022-12-18T12:13:10;18.60;;;14.50;;
15271;SDS011;7737;51.578;7.268;2022-12-18T12:15:51;18.80;;;14.27;;
15271;SDS011;7737;51.578;7.268;2022-12-18T12:18:29;18.10;;;14.13;;
15271;SDS011;7737;51.578;7.268;2022-12-18T12:21:03;17.93;;;13.93;;
15271;SDS011;7737;51.578;7.268;2022-12-18T12:23:38;19.73;;;14.47;;
15271;SDS011;7737;51.578;7.268;2022-12-18T12:26:11;18.40;;;13.60;;
15271;SDS011;7737;51.578;7.268;2022-12-18T12:28:47;17.97;;;12.90;;
15271;SDS011;7737;51.578;7.268;2022-12-18T12:31:30;18.00;;;13.20;;
15271;SDS011;7737;51.578;7.268;2022-12-18T12:34:11;19.27;;;13.07;;
15271;SDS011;7737;51.578;7.268;2022-12-18T12:36:48;17.43;;;13.03;;
15271;SDS011;7737;51.578;7.268;2022-12-18T12:39:25;17.27;;;12.13;;
15271;SDS011;7737;51.578;7.268;2022-12-18T12:41:56;17.67;;;12.90;;
15271;SDS011;7737;51.578;7.268;2022-12-18T12:44:41;16.13;;;12.33;;
15271;SDS011;7737;51.578;7.268;2022-12-18T12:47:13;16.53;;;12.80;;
15271;SDS011;7737;51.578;7.268;2022-12-18T12:49:42;17.30;;;13.23;;
15271;SDS011;7737;51.578;7.268;2022-12-18T12:52:14;17.67;;;13.40;;
15271;SDS011;7737;51.578;7.268;2022-12-18T12:54:44;16.97;;;12.80;;
15271;SDS011;7737;51.578;7.268;2022-12-18T12:57:12;17.37;;;12.27;;
15271;SDS011;7737;51.578;7.268;2022-12-18T12:59:46;16.63;;;13.03;;
15271;SDS011;7737;51.578;7.268;2022-12-18T13:02:18;15.60;;;11.87;;
15271;SDS011;7737;51.578;7.268;2022-12-18T13:04:49;18.40;;;13.47;;
15271;SDS011;7737;51.578;7.268;2022-12-18T13:07:23;16.60;;;12.40;;
15271;SDS011;7737;51.578;7.268;2022-12-18T13:10:11;16.27;;;11.87;;
15271;SDS011;7737;51.578;7.268;2022-12-18T13:12:54;16.93;;;12.30;;
15271;SDS011;7737;51.578;7.268;2022-12-18T13:15:22;16.60;;;13.10;;
15271;SDS011;7737;51.578;7.268;2022-12-18T13:17:51;15.90;;;12.50;;
15271;SDS011;7737;51.578;7.268;2022-12-18T13:20:32;16.60;;;12.13;;
15271;SDS011;7737;51.578;7.268;2022-12-18T13:23:00;17.33;;;12.37;;
15271;SDS011;7737;51.578;7.268;2022-12-18T13:25:28;16.87;;;12.80;;
15271;SDS011;7737;51.578;7.268;2022-12-18T13:28:00;16.00;;;12.23;;
15271;SDS011;7737;51.578;7.268;2022-12-18T13:30:49;16.13;;;12.23;;
15271;SDS011;7737;51.578;7.268;2022-12-18T13:36:16;15.47;;;12.37;;
15271;SDS011;7737;51.578;7.268;2022-12-18T13:42:31;15.63;;;11.83;;
15271;SDS011;7737;51.578;7.268;2022-12-18T13:45:39;14.93;;;12.17;;
15271;SDS011;7737;51.578;7.268;2022-12-18T13:48:14;16.57;;;12.97;;
15271;SDS011;7737;51.578;7.268;2022-12-18T13:50:48;15.90;;;12.30;;
15271;SDS011;7737;51.578;7.268;2022-12-18T13:53:20;18.37;;;13.70;;
15271;SDS011;7737;51.578;7.268;2022-12-18T13:55:49;18.10;;;13.20;;
15271;SDS011;7737;51.578;7.268;2022-12-18T13:58:16;17.37;;;13.10;;
15271;SDS011;7737;51.578;7.268;2022-12-18T14:00:43;18.33;;;13.87;;
15271;SDS011;7737;51.578;7.268;2022-12-18T14:03:16;15.17;;;12.37;;
15271;SDS011;7737;51.578;7.268;2022-12-18T14:05:45;14.60;;;12.27;;
15271;SDS011;7737;51.578;7.268;2022-12-18T14:08:12;17.13;;;13.00;;
15271;SDS011;7737;51.578;7.268;2022-12-18T14:10:42;18.10;;;13.17;;
15271;SDS011;7737;51.578;7.268;2022-12-18T14:13:15;16.27;;;13.23;;
15271;SDS011;7737;51.578;7.268;2022-12-18T14:15:46;16.30;;;12.77;;
15271;SDS011;7737;51.578;7.268;2022-12-18T14:18:18;15.93;;;12.63;;
15271;SDS011;7737;51.578;7.268;2022-12-18T14:20:48;17.33;;;12.30;;
15271;SDS011;7737;51.578;7.268;2022-12-18T14:23:31;14.33;;;11.20;;
15271;SDS011;7737;51.578;7.268;2022-12-18T14:26:01;16.13;;;12.07;;
15271;SDS011;7737;51.578;7.268;2022-12-18T14:28:28;15.07;;;11.53;;
15271;SDS011;7737;51.578;7.268;2022-12-18T14:30:55;16.07;;;11.87;;
15271;SDS011;7737;51.578;7.268;2022-12-18T14:33:22;16.80;;;12.40;;
15271;SDS011;7737;51.578;7.268;2022-12-18T14:35:54;16.03;;;10.70;;
15271;SDS011;7737;51.578;7.268;2022-12-18T14:38:23;15.10;;;10.63;;
15271;SDS011;7737;51.578;7.268;2022-12-18T14:40:52;17.00;;;10.33;;
15271;SDS011;7737;51.578;7.268;2022-12-18T14:43:21;12.50;;;10.47;;
15271;SDS011;7737;51.578;7.268;2022-12-18T14:45:48;14.67;;;10.60;;
15271;SDS011;7737;51.578;7.268;2022-12-18T14:48:16;17.53;;;10.83;;
15271;SDS011;7737;51.578;7.268;2022-12-18T14:50:44;12.90;;;10.50;;
15271;SDS011;7737;51.578;7.268;2022-12-18T14:53:20;14.33;;;11.30;;
15271;SDS011;7737;51.578;7.268;2022-12-18T14:55:49;14.77;;;11.73;;